Create Tblcommutelog Verified Points Advance Search
| # | Trip ID | Id Commuter | Trip Date | Trip Num | Current Lat | Current Lng | Delta Distance | Current Time | Activity | Activity Confidence | Current Speed | |
|---|---|---|---|---|---|---|---|---|---|---|---|---|
| 71801 | 251111_785147_16653236_1642 | 785147 | (not set) | (not set) | 39.100264716667 | -77.5651635 | 13.5792 | 2025-11-11 17:02:13 | in_vehicle | 100 | 10.831761245273 | |
| 71802 | 251111_785007_16653066_1601 | 785007 | (not set) | (not set) | 38.946649223243 | -77.335834269665 | 18.1396 | 2025-11-11 17:02:13 | still | 33 | -0.44703925898772 | |
| 71803 | 251111_785007_16653066_1601 | 785007 | (not set) | (not set) | 38.946649223243 | -77.335834269665 | 18.1396 | 2025-11-11 17:02:13 | still | 33 | -0.44703925898772 | |
| 71804 | 251111_785822_16656269_1659 | 785822 | (not set) | (not set) | 38.986386428658 | -76.949023923958 | 0.3503 | 2025-11-11 17:02:14 | in_vehicle | 100 | 2.7537618353644 | |
| 71805 | 251111_785822_16656269_1659 | 785822 | (not set) | (not set) | 38.986386428658 | -76.949023923958 | 0.3503 | 2025-11-11 17:02:14 | in_vehicle | 100 | 2.7537618353644 | |
| 71806 | 251111_785264_16653381_1608 | 785264 | (not set) | (not set) | 38.9471259397 | -77.339544046124 | 17.9687 | 2025-11-11 17:02:14 | still | 33 | -0.44703925898772 | |
| 71807 | 251111_765311_16652720_1611 | 765311 | (not set) | (not set) | 39.255169808005 | -76.690576693901 | 8.0309 | 2025-11-11 17:02:15 | in_vehicle | 100 | 17.363004819083 | |
| 71808 | 251111_785007_16653066_1601 | 785007 | (not set) | (not set) | 38.947701329966 | -77.339773574007 | 18.5571 | 2025-11-11 17:02:15 | in_vehicle | 100 | -0.44703925898772 | |
| 71809 | 251111_785007_16653066_1601 | 785007 | (not set) | (not set) | 38.947701329966 | -77.339773574007 | 18.5571 | 2025-11-11 17:02:15 | in_vehicle | 100 | -0.44703925898772 | |
| 71810 | 251111_785264_16653381_1608 | 785264 | (not set) | (not set) | 38.949934049063 | -77.342477258262 | 17.9687 | 2025-11-11 17:02:14 | still | 33 | -0.44703925898772 | |
| 71811 | 251111_765311_16652720_1611 | 765311 | (not set) | (not set) | 39.253748630952 | -76.690877470178 | 8.1303 | 2025-11-11 17:02:19 | in_vehicle | 100 | 17.778751329942 | |
| 71812 | 251111_781315_16654644_1658 | 781315 | (not set) | (not set) | 38.903710028171 | -77.039008562422 | 0.2954 | 2025-11-11 17:02:19 | unknown | 100 | 1.1980652140871 | |
| 71813 | 251111_789307_16658402_1627 | 789307 | (not set) | (not set) | 39.0052754 | -77.106285 | 13.6737 | 2025-11-11 17:02:20 | in_vehicle | 100 | 4.988958130303 | |
| 71814 | 251111_780836_16648513_1644 | 780836 | (not set) | (not set) | 38.881940459954 | -77.112048980964 | 3.5906 | 2025-11-11 17:02:20 | in_vehicle | 100 | -0.44703925898772 | |
| 71815 | 251111_786896_16514849_1650 | 786896 | (not set) | (not set) | 38.91782857947 | -77.218090184105 | 0.2635 | 2025-11-11 17:02:22 | still | 33 | 4.8995502785055 | |
| 71816 | 251111_786896_16514849_1650 | 786896 | (not set) | (not set) | 38.91782857947 | -77.218090184105 | 0 | 2025-11-11 17:02:22 | still | 33 | 4.8995502785055 | |
| 71817 | 251111_780743_16648420_1638 | 780743 | (not set) | (not set) | 38.884459174808 | -77.091404852559 | 5.2602 | 2025-11-11 17:02:23 | on_foot | 100 | 0.7465555625095 | |
| 71818 | 251111_785264_16653381_1608 | 785264 | (not set) | (not set) | 38.951738793189 | -77.342895657937 | 17.9687 | 2025-11-11 17:02:24 | in_vehicle | 100 | -0.44703925898772 | |
| 71819 | 251111_785147_16653236_1642 | 785147 | (not set) | (not set) | 39.1011025 | -77.568644933333 | 13.775 | 2025-11-11 17:02:26 | still | 33 | 10.442837089953 | |
| 71820 | 251111_765311_16652720_1611 | 765311 | (not set) | (not set) | 39.250848739526 | -76.691004066908 | 8.3305 | 2025-11-11 17:02:27 | in_vehicle | 100 | 18.21237941116 |